Time;durP1;ratioP1;P1;durP2;ratioP2;P2;SDS_P1;SDS_P2;PMS_P1;PMS_P2;Temp;Humidity;BMP_temperature;BMP_pressure;BME280_temperature;BME280_humidity;BME280_pressure;Samples;Min_cycle;Max_cycle;Signal;HPM_P1;HPM_P2
2023/01/18 00:00:09;;;;;;;1.58;0.50;;;;;;;12.27;49.36;92085.09;5003271;28;20276;-82
2023/01/18 00:02:35;;;;;;;2.15;0.50;;;;;;;12.32;48.85;92076.75;5003333;28;20026;-82
2023/01/18 00:05:00;;;;;;;0.70;0.40;;;;;;;12.36;49.03;91994.75;5003092;28;20334;-81
2023/01/18 00:07:26;;;;;;;3.50;0.45;;;;;;;12.39;48.87;92112.31;5003262;28;20022;-82
2023/01/18 00:09:51;;;;;;;2.47;0.35;;;;;;;12.37;48.94;92093.22;5003251;28;20037;-85
2023/01/18 00:12:17;;;;;;;1.35;0.70;;;;;;;12.36;49.46;92106.97;5002327;28;20312;-84
2023/01/18 00:14:43;;;;;;;5.28;1.50;;;;;;;12.36;49.07;92080.25;5002038;28;20018;-83
2023/01/18 00:17:08;;;;;;;1.02;0.47;;;;;;;12.41;48.84;92093.25;5001986;28;20335;-83
2023/01/18 00:19:34;;;;;;;1.80;0.63;;;;;;;12.43;49.13;92123.81;5003085;28;20018;-84
2023/01/18 00:22:00;;;;;;;2.22;0.50;;;;;;;12.39;49.17;92096.28;5001941;28;20089;-83
2023/01/18 00:24:26;;;;;;;2.80;0.65;;;;;;;12.38;49.47;92128.72;5001761;28;20022;-83
2023/01/18 00:26:52;;;;;;;1.42;0.43;;;;;;;12.37;49.44;92127.19;5003155;28;20308;-82
2023/01/18 00:29:18;;;;;;;3.60;0.55;;;;;;;12.38;49.22;92110.03;5003295;28;20025;-81
2023/01/18 00:31:44;;;;;;;1.63;0.60;;;;;;;12.34;49.59;92095.88;5003413;28;20101;-84
2023/01/18 00:34:10;;;;;;;1.77;0.65;;;;;;;12.31;49.67;92142.00;5003271;28;20248;-82
2023/01/18 00:36:36;;;;;;;3.35;0.95;;;;;;;12.32;49.61;92127.53;5003106;28;20105;-84
2023/01/18 00:39:02;;;;;;;1.88;0.52;;;;;;;12.33;49.75;92139.72;5003259;28;20018;-82
2023/01/18 00:41:27;;;;;;;0.73;0.40;;;;;;;12.31;50.04;92136.66;5003157;28;20209;-82
2023/01/18 00:43:53;;;;;;;2.85;0.60;;;;;;;12.31;49.67;92123.31;5002926;28;20014;-83
2023/01/18 00:46:23;;;;;;;2.92;0.70;;;;;;;12.33;49.52;92103.09;5003355;28;20019;-83
2023/01/18 00:48:49;;;;;;;2.28;0.50;;;;;;;12.32;49.55;92112.25;5006890;28;20022;-84
2023/01/18 00:51:19;;;;;;;1.15;0.30;;;;;;;12.35;49.42;92111.50;5006726;28;20018;-84
2023/01/18 00:53:45;;;;;;;4.22;0.70;;;;;;;12.40;49.27;92087.16;5006533;28;20026;-83
2023/01/18 00:56:13;;;;;;;4.10;0.73;;;;;;;12.41;49.32;92134.09;5006573;28;20025;-84
2023/01/18 00:58:39;;;;;;;1.50;0.60;;;;;;;12.43;49.02;92125.72;5006438;28;20325;-84
2023/01/18 01:01:08;;;;;;;1.17;0.43;;;;;;;12.44;49.29;92140.63;5006443;28;20025;-84
2023/01/18 01:06:44;;;;;;;1.48;0.63;;;;;;;12.48;49.04;92159.38;4985228;28;20022;-83
2023/01/18 01:09:16;;;;;;;1.50;0.47;;;;;;;12.46;49.03;92157.06;5002913;28;20280;-84
2023/01/18 01:28:06;;;;;;;2.40;0.77;;;;;;;12.46;49.41;92141.03;5005917;28;20081;-86
2023/01/18 01:30:32;;;;;;;0.55;0.40;;;;;;;12.44;49.42;92145.97;5006048;28;20247;-85
2023/01/18 01:32:57;;;;;;;4.50;0.80;;;;;;;12.45;49.39;92144.81;5005868;28;20030;-83
2023/01/18 01:35:23;;;;;;;7.05;0.82;;;;;;;12.50;49.69;92176.56;5005689;28;20324;-84
2023/01/18 01:37:48;;;;;;;4.38;0.70;;;;;;;12.45;49.60;92088.72;5005552;28;20042;-85
2023/01/18 01:40:15;;;;;;;3.08;0.63;;;;;;;12.49;49.55;92150.22;5005663;28;20054;-83
2023/01/18 01:42:40;;;;;;;2.10;0.77;;;;;;;12.49;49.36;92140.28;5005602;28;20030;-84
2023/01/18 01:45:07;;;;;;;0.60;0.40;;;;;;;12.48;48.89;92160.13;5005629;28;20037;-86
2023/01/18 01:47:42;;;;;;;1.98;0.50;;;;;;;12.49;49.27;92147.53;5005305;28;20030;-85
2023/01/18 01:50:22;;;;;;;1.45;0.52;;;;;;;12.55;48.47;92162.09;5005328;28;20359;-85
2023/01/18 01:52:47;;;;;;;3.08;0.68;;;;;;;12.58;48.35;92175.50;5004547;28;20050;-86
2023/01/18 01:55:36;;;;;;;2.33;0.70;;;;;;;12.58;48.51;92180.09;5005346;28;20383;-86
2023/01/18 01:58:09;;;;;;;7.45;0.57;;;;;;;12.61;48.16;92172.09;5005121;28;20268;-85
2023/01/18 02:00:35;;;;;;;3.10;1.60;;;;;;;12.65;48.07;92186.25;5004336;28;20025;-86
2023/01/18 02:03:06;;;;;;;2.55;0.70;;;;;;;12.64;48.34;92182.06;5005326;28;20038;-86
2023/01/18 02:05:35;;;;;;;3.42;0.88;;;;;;;12.59;48.84;92157.56;5005138;28;20041;-85
2023/01/18 02:08:02;;;;;;;3.72;1.05;;;;;;;12.57;48.81;92162.50;5005075;28;20137;-83
2023/01/18 02:10:28;;;;;;;2.40;0.77;;;;;;;12.58;48.29;92135.44;5004894;28;20033;-84
2023/01/18 02:12:55;;;;;;;2.40;0.57;;;;;;;12.58;48.35;92156.03;5004963;28;20053;-83
2023/01/18 02:15:33;;;;;;;2.65;0.60;;;;;;;12.55;48.52;92154.84;5004963;28;20022;-83
2023/01/18 02:18:17;;;;;;;6.97;1.20;;;;;;;12.57;48.54;92136.53;5004941;28;20018;-84
2023/01/18 02:21:01;;;;;;;2.60;0.77;;;;;;;12.57;48.85;92157.94;5004828;28;20093;-83
2023/01/18 02:23:44;;;;;;;2.20;0.85;;;;;;;12.51;49.19;92162.06;5004483;28;20046;-84
2023/01/18 02:26:45;;;;;;;3.50;0.55;;;;;;;12.50;49.00;92144.50;5004723;28;20030;-83
2023/01/18 02:29:33;;;;;;;3.95;0.98;;;;;;;12.45;48.61;92137.56;5001742;28;20058;-83
2023/01/18 02:32:01;;;;;;;5.78;0.68;;;;;;;12.51;48.60;92164.72;5004590;28;20097;-83
2023/01/18 02:34:39;;;;;;;1.73;0.70;;;;;;;12.57;48.37;92157.94;5004285;28;20220;-83
2023/01/18 02:37:14;;;;;;;2.33;0.57;;;;;;;12.56;48.76;92139.59;5004383;28;20336;-83
2023/01/18 02:39:58;;;;;;;8.05;0.70;;;;;;;12.54;48.24;92171.28;5004271;28;20153;-84
2023/01/18 02:48:07;;;;;;;4.35;1.08;;;;;;;12.60;48.66;92241.97;5004349;28;20025;-84
2023/01/18 02:50:33;;;;;;;3.72;0.88;;;;;;;12.57;48.68;92184.66;5004179;28;20025;-84
2023/01/18 02:52:58;;;;;;;5.82;0.73;;;;;;;12.55;48.47;92159.44;5004322;28;20018;-84
2023/01/18 02:55:30;;;;;;;3.97;0.80;;;;;;;12.58;48.44;92225.53;5004097;28;20038;-83
2023/01/18 02:58:02;;;;;;;4.03;0.75;;;;;;;12.56;48.23;92212.53;5004294;28;20093;-83
2023/01/18 03:00:28;;;;;;;3.00;1.00;;;;;;;12.59;48.33;92217.13;5004126;28;20089;-83
2023/01/18 03:02:55;;;;;;;3.47;0.98;;;;;;;12.61;48.26;92225.53;5003993;28;20312;-83
2023/01/18 03:05:23;;;;;;;4.32;1.10;;;;;;;12.63;48.12;92201.91;5003844;28;20018;-82
2023/01/18 03:08:03;;;;;;;4.68;0.80;;;;;;;12.62;48.14;92210.31;5004002;28;20045;-82
2023/01/18 03:10:30;;;;;;;4.75;0.63;;;;;;;12.60;48.10;92183.16;5003702;28;20212;-83
2023/01/18 03:13:00;;;;;;;1.23;0.52;;;;;;;12.65;48.05;92177.47;5004056;28;20025;-85
2023/01/18 03:15:35;;;;;;;3.83;0.80;;;;;;;12.62;47.64;92189.69;5003723;28;20026;-85
2023/01/18 03:18:34;;;;;;;2.58;1.08;;;;;;;12.62;47.68;92176.31;5003932;28;20220;-83
2023/01/18 03:21:04;;;;;;;4.88;0.80;;;;;;;12.65;47.51;92172.91;5003849;28;20018;-83
2023/01/18 03:23:40;;;;;;;2.35;0.75;;;;;;;12.65;47.81;92194.28;5003855;28;20026;-83
2023/01/18 03:26:18;;;;;;;8.32;0.77;;;;;;;12.69;47.45;92172.19;5003728;28;20033;-84
2023/01/18 03:34:53;;;;;;;3.67;0.52;;;;;;;12.61;47.49;92177.44;5003922;28;20030;-82
2023/01/18 03:37:31;;;;;;;3.15;0.63;;;;;;;12.63;47.44;92169.81;5003510;28;20252;-83
2023/01/18 03:40:01;;;;;;;2.80;0.50;;;;;;;12.66;47.26;92160.31;5003465;28;20343;-82
2023/01/18 03:42:33;;;;;;;5.90;0.80;;;;;;;12.70;46.90;92181.72;5003512;28;20137;-82
2023/01/18 03:45:06;;;;;;;3.38;0.70;;;;;;;12.75;47.27;92192.84;5003801;28;20089;-82
2023/01/18 03:47:31;;;;;;;2.35;0.60;;;;;;;12.67;47.22;92185.91;5003317;28;20060;-82
2023/01/18 03:49:57;;;;;;;4.63;1.05;;;;;;;12.71;47.04;92199.31;5003673;28;20221;-81
2023/01/18 03:52:27;;;;;;;4.70;0.80;;;;;;;12.65;47.09;92188.16;5003523;28;20026;-81
2023/01/18 03:55:15;;;;;;;7.93;1.00;;;;;;;12.68;47.24;92197.34;5003391;28;20018;-81
2023/01/18 03:57:53;;;;;;;5.93;0.95;;;;;;;12.64;47.11;92192.00;5003555;28;20030;-81
2023/01/18 04:00:19;;;;;;;7.68;1.17;;;;;;;12.67;46.95;92201.94;5003444;28;20030;-81
2023/01/18 04:02:47;;;;;;;1.27;0.52;;;;;;;12.71;47.08;92177.94;5002561;28;20105;-81
2023/01/18 04:05:13;;;;;;;3.83;1.00;;;;;;;12.70;46.73;92182.50;5003224;28;20080;-81
2023/01/18 04:07:39;;;;;;;13.70;1.35;;;;;;;12.72;46.49;92188.25;5003430;28;20034;-81
2023/01/18 04:10:05;;;;;;;4.70;0.65;;;;;;;12.73;46.66;92208.50;5003584;28;20090;-82
2023/01/18 04:12:33;;;;;;;6.25;0.95;;;;;;;12.72;46.88;92211.53;5003360;28;20034;-82
2023/01/18 04:14:58;;;;;;;3.40;0.73;;;;;;;12.71;47.00;92210.75;5003506;28;20029;-83
2023/01/18 04:17:24;;;;;;;8.45;1.00;;;;;;;12.71;46.72;92205.41;5003316;28;20026;-83
2023/01/18 04:19:49;;;;;;;5.90;0.90;;;;;;;12.69;46.67;92217.63;5003265;28;20029;-83
2023/01/18 04:22:15;;;;;;;4.32;0.80;;;;;;;12.70;46.88;92200.44;5005126;28;20026;-83
2023/01/18 04:24:41;;;;;;;5.78;0.73;;;;;;;12.72;46.71;92139.34;5006049;28;20033;-83
2023/01/18 04:27:06;;;;;;;4.07;1.02;;;;;;;12.73;46.24;92189.03;5007020;28;20029;-83
2023/01/18 04:29:31;;;;;;;6.95;1.17;;;;;;;12.76;46.48;92183.72;5007127;28;20023;-83
2023/01/18 04:31:59;;;;;;;3.03;0.68;;;;;;;12.74;46.62;92190.53;5005668;28;20105;-83
2023/01/18 04:34:25;;;;;;;3.92;0.75;;;;;;;12.72;46.35;92208.84;5005659;28;20189;-83
2023/01/18 04:36:50;;;;;;;6.45;0.85;;;;;;;12.76;46.52;92185.59;5006756;28;20178;-84
2023/01/18 04:39:16;;;;;;;3.30;0.82;;;;;;;12.79;46.52;92204.34;5007123;28;20022;-83
2023/01/18 04:41:42;;;;;;;3.13;0.98;;;;;;;12.78;46.40;92196.69;5006844;28;20069;-84
2023/01/18 04:44:07;;;;;;;2.88;0.80;;;;;;;12.81;46.29;92171.91;5006405;28;20022;-83
2023/01/18 04:46:33;;;;;;;2.25;1.02;;;;;;;12.81;46.24;92212.00;5006719;28;20026;-83
2023/01/18 04:48:59;;;;;;;3.15;0.73;;;;;;;12.81;46.44;92193.31;5006461;28;20054;-84
2023/01/18 04:51:26;;;;;;;2.63;0.80;;;;;;;12.81;46.58;92159.31;5006313;28;20018;-84
2023/01/18 04:53:52;;;;;;;7.65;1.15;;;;;;;12.78;46.59;92191.34;5006368;28;20036;-83
2023/01/18 04:56:18;;;;;;;9.23;1.27;;;;;;;12.76;46.53;92146.28;5006392;28;20316;-84
2023/01/18 04:58:43;;;;;;;5.25;0.80;;;;;;;12.81;46.42;92179.94;5006290;28;20026;-84
2023/01/18 05:01:12;;;;;;;5.85;1.02;;;;;;;12.78;46.74;92148.56;5006453;28;20030;-84
2023/01/18 05:03:39;;;;;;;5.55;0.80;;;;;;;12.77;46.68;92157.75;5006291;28;20018;-84
2023/01/18 05:06:06;;;;;;;6.13;1.13;;;;;;;12.77;46.36;92113.06;5006263;28;20220;-80
2023/01/18 05:08:32;;;;;;;3.10;0.55;;;;;;;12.77;46.03;92155.84;5006425;28;20256;-81
2023/01/18 05:11:06;;;;;;;2.58;0.60;;;;;;;12.77;46.51;92131.00;5006226;28;20066;-81
2023/01/18 05:13:31;;;;;;;7.47;1.13;;;;;;;12.81;46.23;92170.00;5006211;28;20042;-81
2023/01/18 05:15:59;;;;;;;4.30;1.02;;;;;;;12.82;45.91;92157.41;5004957;28;20331;-80
2023/01/18 05:18:24;;;;;;;4.38;0.93;;;;;;;12.87;46.26;92169.69;5005761;28;20336;-80
2023/01/18 05:20:50;;;;;;;5.57;1.02;;;;;;;12.86;45.92;92163.53;5006100;28;20074;-81
2023/01/18 05:23:16;;;;;;;10.38;0.80;;;;;;;12.85;46.21;92122.69;5005953;28;20041;-81
2023/01/18 05:25:41;;;;;;;5.15;1.08;;;;;;;12.86;46.19;92171.56;5005907;28;20018;-81
2023/01/18 05:28:08;;;;;;;8.27;1.20;;;;;;;12.87;45.95;92134.94;5005805;28;20100;-84
2023/01/18 05:30:38;;;;;;;3.08;1.23;;;;;;;12.89;45.74;92159.38;5004522;28;20024;-82
2023/01/18 05:33:03;;;;;;;5.80;0.82;;;;;;;12.94;45.64;92170.50;5005495;28;20019;-81
2023/01/18 05:35:29;;;;;;;5.45;0.77;;;;;;;12.98;45.62;92198.03;5005596;28;20040;-80
2023/01/18 05:37:55;;;;;;;4.80;1.10;;;;;;;12.97;45.69;92209.13;5005416;28;20048;-80
2023/01/18 05:40:20;;;;;;;3.10;0.85;;;;;;;12.98;45.64;92208.72;5005667;28;20034;-80
2023/01/18 05:42:46;;;;;;;5.05;0.73;;;;;;;12.93;46.13;92219.78;5004484;28;20097;-80
2023/01/18 05:45:11;;;;;;;5.85;0.80;;;;;;;12.93;46.26;92216.34;5005486;28;20042;-80
2023/01/18 05:47:37;;;;;;;5.07;1.05;;;;;;;12.99;45.70;92214.88;5005518;28;20065;-81
2023/01/18 05:50:03;;;;;;;4.78;0.90;;;;;;;12.99;45.57;92223.66;5005409;28;20018;-80
2023/01/18 05:52:28;;;;;;;7.40;0.85;;;;;;;13.03;45.45;92261.13;5004321;28;20025;-81
2023/01/18 05:54:54;;;;;;;6.68;1.73;;;;;;;13.04;45.53;92225.97;5005264;28;20014;-80
2023/01/18 05:57:19;;;;;;;9.45;1.10;;;;;;;13.07;44.86;92232.53;5005279;28;20026;-81
2023/01/18 05:59:45;;;;;;;5.35;1.10;;;;;;;13.10;45.35;92263.09;5005398;28;20022;-80
2023/01/18 06:02:10;;;;;;;4.60;0.88;;;;;;;13.07;45.14;92256.59;5005289;28;20018;-81
2023/01/18 06:04:35;;;;;;;9.35;1.38;;;;;;;13.10;45.55;92249.72;5005023;28;20029;-81
2023/01/18 06:07:01;;;;;;;2.67;0.90;;;;;;;13.11;45.45;92251.25;5004943;28;20025;-80
2023/01/18 06:09:28;;;;;;;8.88;1.10;;;;;;;13.11;45.94;92237.88;5004937;28;20115;-80
2023/01/18 06:11:54;;;;;;;5.47;1.08;;;;;;;13.10;46.12;92281.84;5004957;28;20093;-80
2023/01/18 06:14:19;;;;;;;4.35;1.02;;;;;;;13.00;46.20;92276.00;5004775;28;20017;-81
2023/01/18 06:16:45;;;;;;;2.55;1.02;;;;;;;13.03;46.22;92275.28;5004831;28;20208;-80
2023/01/18 06:19:10;;;;;;;7.90;1.20;;;;;;;13.00;46.33;92278.66;5004790;28;20092;-80
2023/01/18 06:21:36;;;;;;;5.25;1.52;;;;;;;12.99;46.15;92253.06;5004742;28;20057;-81
2023/01/18 06:24:01;;;;;;;3.55;0.90;;;;;;;13.00;46.18;92270.66;5004745;28;20050;-80
2023/01/18 06:26:29;;;;;;;1.60;0.80;;;;;;;13.00;46.63;92291.28;5004825;28;20080;-81
2023/01/18 06:28:54;;;;;;;11.80;1.20;;;;;;;13.04;46.54;92274.13;5004778;28;20069;-81
2023/01/18 06:31:20;;;;;;;6.35;1.00;;;;;;;13.05;46.65;92291.72;5004378;28;20030;-81
2023/01/18 06:33:45;;;;;;;6.03;1.05;;;;;;;13.06;46.79;92356.69;5004684;28;20022;-82
2023/01/18 06:36:11;;;;;;;4.53;0.70;;;;;;;13.03;46.48;92307.38;5004544;28;20014;-87
2023/01/18 06:38:36;;;;;;;4.28;0.90;;;;;;;13.02;47.09;92295.13;5004843;28;20340;-86
2023/01/18 06:41:02;;;;;;;4.32;0.80;;;;;;;12.92;47.74;92319.84;5004877;28;20029;-86
2023/01/18 06:43:28;;;;;;;6.40;1.00;;;;;;;12.96;47.63;92311.88;5004283;28;20220;-87
2023/01/18 06:45:56;;;;;;;7.00;1.15;;;;;;;12.91;47.86;92296.91;5003504;28;20034;-86
2023/01/18 06:48:23;;;;;;;8.75;1.02;;;;;;;12.91;47.99;92317.56;5005247;28;20022;-87
2023/01/18 06:50:51;;;;;;;7.38;1.40;;;;;;;12.91;47.65;92278.19;5004587;28;20046;-87
2023/01/18 06:53:20;;;;;;;7.78;1.33;;;;;;;12.93;48.14;92293.88;5003230;28;20030;-85
2023/01/18 06:56:00;;;;;;;3.47;0.63;;;;;;;12.89;48.22;92283.16;5002997;28;20212;-86
2023/01/18 06:58:26;;;;;;;5.50;0.93;;;;;;;12.88;47.89;92256.75;5004161;28;20201;-86
2023/01/18 07:00:57;;;;;;;5.97;0.95;;;;;;;12.94;47.78;92266.00;5004175;28;20064;-85
2023/01/18 07:03:23;;;;;;;9.70;1.50;;;;;;;13.01;47.85;92266.84;5003790;28;20042;-83
2023/01/18 07:05:56;;;;;;;10.40;0.90;;;;;;;12.99;47.72;92265.69;5004343;28;20076;-87
2023/01/18 07:08:22;;;;;;;7.45;1.27;;;;;;;13.01;47.36;92298.94;5004273;28;20030;-86
2023/01/18 07:10:48;;;;;;;4.18;1.10;;;;;;;13.13;47.10;92270.41;5004294;28;20049;-86
2023/01/18 07:13:14;;;;;;;6.50;1.33;;;;;;;13.13;47.07;92271.19;5002662;28;20335;-85
2023/01/18 07:15:39;;;;;;;7.15;1.67;;;;;;;13.18;47.82;92302.16;5003576;28;20041;-77
2023/01/18 07:18:05;;;;;;;3.28;0.90;;;;;;;13.22;46.85;92284.25;5003690;28;20324;-82
2023/01/18 07:20:30;;;;;;;3.20;0.82;;;;;;;13.20;46.58;92286.53;5002552;28;20026;-81
2023/01/18 07:22:57;;;;;;;4.85;1.10;;;;;;;13.21;46.92;92264.00;5003597;28;20224;-85
2023/01/18 07:25:23;;;;;;;4.82;0.93;;;;;;;13.29;46.48;92256.78;5003409;28;20342;-83
2023/01/18 07:27:48;;;;;;;9.43;1.85;;;;;;;13.31;46.66;92258.00;5003850;28;20022;-82
2023/01/18 07:30:15;;;;;;;2.58;1.08;;;;;;;13.27;46.54;92225.06;5003559;28;20273;-79
2023/01/18 07:32:51;;;;;;;8.63;1.45;;;;;;;13.28;46.40;92199.84;5003701;28;20034;-78
2023/01/18 07:35:20;;;;;;;7.45;1.05;;;;;;;13.33;46.68;92245.03;5003636;28;20022;-78
2023/01/18 07:37:51;;;;;;;9.50;1.48;;;;;;;13.30;46.42;92236.97;5003422;28;20038;-81
2023/01/18 07:40:19;;;;;;;9.38;1.63;;;;;;;13.33;46.09;92242.34;5003619;28;20049;-78
2023/01/18 07:42:45;;;;;;;2.67;0.95;;;;;;;13.32;46.19;92250.75;5003305;28;20030;-77
2023/01/18 07:45:12;;;;;;;5.05;1.00;;;;;;;13.36;46.12;92257.66;5003185;28;20273;-77
2023/01/18 07:47:41;;;;;;;2.72;0.98;;;;;;;13.41;46.05;92281.41;5003442;28;20023;-86
2023/01/18 07:50:07;;;;;;;8.05;1.45;;;;;;;13.43;45.88;92311.25;5003984;28;20038;-88
2023/01/18 07:52:33;;;;;;;2.97;0.95;;;;;;;13.41;46.14;92299.34;5003480;28;20022;-87
2023/01/18 07:54:59;;;;;;;8.15;0.98;;;;;;;13.41;46.03;92278.72;5003057;28;20019;-87
2023/01/18 07:57:24;;;;;;;5.55;1.00;;;;;;;13.47;45.76;92353.31;5003896;28;20309;-87
2023/01/18 07:59:50;;;;;;;8.15;1.13;;;;;;;13.55;45.83;92352.25;5004574;28;20053;-87
2023/01/18 08:02:16;;;;;;;11.88;1.75;;;;;;;13.56;46.10;92373.31;5007321;28;20029;-88
2023/01/18 08:04:42;;;;;;;7.28;1.00;;;;;;;13.58;46.14;92356.88;5006851;28;20026;-87
2023/01/18 08:07:07;;;;;;;4.90;0.85;;;;;;;13.54;46.10;92370.22;5007022;28;20022;-86
2023/01/18 08:09:33;;;;;;;9.52;1.10;;;;;;;13.58;45.91;92373.72;5006116;28;20030;-88
2023/01/18 08:11:59;;;;;;;13.02;1.88;;;;;;;13.62;45.80;92381.78;5007602;28;20030;-88
2023/01/18 08:14:25;;;;;;;7.65;1.00;;;;;;;13.61;46.23;92401.66;5007360;28;20018;-88
2023/01/18 08:16:51;;;;;;;6.93;1.63;;;;;;;13.61;45.81;92407.00;5007387;28;20343;-88
2023/01/18 08:19:16;;;;;;;7.90;0.77;;;;;;;13.67;45.81;92426.94;5007821;28;20093;-87
2023/01/18 08:21:43;;;;;;;3.55;0.60;;;;;;;13.63;46.28;92426.13;5006588;28;20083;-90
2023/01/18 08:24:08;;;;;;;5.07;1.02;;;;;;;13.57;46.32;92416.91;5006550;28;20022;-88
2023/01/18 08:26:33;;;;;;;7.18;1.00;;;;;;;13.49;46.19;92420.63;5007200;28;20045;-87
2023/01/18 08:28:59;;;;;;;6.53;1.23;;;;;;;13.46;46.71;92450.81;5006781;28;20022;-87
2023/01/18 08:31:25;;;;;;;7.07;1.05;;;;;;;13.52;47.02;92433.31;5006799;28;20022;-87
2023/01/18 08:33:51;;;;;;;4.22;0.82;;;;;;;13.51;46.57;92439.78;5005644;28;20046;-86
2023/01/18 08:36:22;;;;;;;4.78;0.82;;;;;;;13.54;46.81;92410.38;5006800;28;20022;-87
2023/01/18 08:38:54;;;;;;;6.25;1.10;;;;;;;13.47;46.78;92415.63;5006896;28;20391;-86
2023/01/18 08:41:20;;;;;;;5.37;1.17;;;;;;;13.47;46.97;92407.63;5006783;28;20373;-86
2023/01/18 08:43:52;;;;;;;7.43;1.30;;;;;;;13.48;47.24;92416.44;5006876;28;20022;-87
2023/01/18 08:46:17;;;;;;;4.63;0.98;;;;;;;13.50;47.14;92395.44;5007282;28;20029;-87
2023/01/18 08:48:43;;;;;;;11.07;1.40;;;;;;;13.49;47.44;92393.88;5007497;28;20049;-87
2023/01/18 08:51:09;;;;;;;3.67;0.85;;;;;;;13.48;47.08;92397.69;5006065;28;20022;-89
2023/01/18 08:53:34;;;;;;;10.35;1.83;;;;;;;13.49;46.89;92400.00;5006729;28;20022;-86
2023/01/18 08:56:06;;;;;;;7.22;0.75;;;;;;;13.48;46.95;92392.34;5006127;28;20018;-86
2023/01/18 08:58:32;;;;;;;7.75;1.20;;;;;;;13.53;46.78;92422.22;5006211;28;20056;-86
2023/01/18 09:00:57;;;;;;;5.03;0.65;;;;;;;13.54;46.93;92407.69;5006225;28;20050;-86
2023/01/18 09:03:23;;;;;;;4.65;0.93;;;;;;;13.58;46.61;92410.44;5006200;28;20043;-86
2023/01/18 09:05:49;;;;;;;3.25;1.10;;;;;;;13.55;46.71;92411.91;5006245;28;20268;-87
2023/01/18 09:08:16;;;;;;;5.03;1.05;;;;;;;13.54;46.48;92418.41;5005313;28;20022;-87
2023/01/18 09:10:41;;;;;;;3.55;0.80;;;;;;;13.54;46.66;92412.28;5006005;28;20085;-86
2023/01/18 09:13:07;;;;;;;4.50;1.00;;;;;;;13.55;46.80;92468.13;5005131;28;20026;-88
2023/01/18 09:15:33;;;;;;;7.68;1.05;;;;;;;13.54;47.11;92497.94;5006254;28;20018;-86
2023/01/18 09:18:03;;;;;;;4.70;0.98;;;;;;;13.54;47.16;92516.69;5005936;28;20309;-86
2023/01/18 09:20:29;;;;;;;5.60;1.08;;;;;;;13.51;47.09;92461.19;5006214;28;20025;-86
2023/01/18 09:22:54;;;;;;;7.43;1.10;;;;;;;13.52;46.92;92462.75;5005860;28;20104;-87
2023/01/18 09:25:20;;;;;;;5.32;0.93;;;;;;;13.60;46.75;92517.91;5005817;28;20030;-87
2023/01/18 09:27:45;;;;;;;8.82;1.02;;;;;;;13.59;46.60;92485.00;5005893;28;20093;-85
2023/01/18 09:30:11;;;;;;;7.18;1.42;;;;;;;13.62;46.59;92478.16;5005705;28;20106;-85
2023/01/18 09:32:37;;;;;;;6.60;1.35;;;;;;;13.66;47.09;92505.75;5005691;28;20030;-87
2023/01/18 09:35:03;;;;;;;2.80;0.45;;;;;;;13.58;46.78;92520.19;5005803;28;20026;-87
2023/01/18 09:37:28;;;;;;;4.75;0.90;;;;;;;13.61;46.68;92498.03;5005440;28;20244;-86
2023/01/18 09:39:54;;;;;;;6.75;1.10;;;;;;;13.65;46.29;92526.38;5005158;28;20255;-85
2023/01/18 09:42:22;;;;;;;11.82;1.45;;;;;;;13.60;46.51;92483.88;5005678;28;20014;-87
2023/01/18 09:44:54;;;;;;;4.18;0.82;;;;;;;13.62;46.68;92523.66;5005603;28;20026;-86
2023/01/18 09:47:45;;;;;;;10.82;1.15;;;;;;;13.65;46.63;92512.97;5005412;28;20022;-88
2023/01/18 09:50:16;;;;;;;7.10;1.60;;;;;;;13.73;46.60;92527.22;5005505;28;20209;-87
2023/01/18 09:53:05;;;;;;;3.72;0.82;;;;;;;13.68;46.10;92567.72;5005398;28;20033;-88
2023/01/18 09:55:36;;;;;;;6.32;1.00;;;;;;;13.74;46.39;92509.25;5005394;28;20026;-86
2023/01/18 09:58:23;;;;;;;8.35;1.67;;;;;;;13.85;45.70;92515.50;5005087;28;20198;-86
2023/01/18 10:00:49;;;;;;;4.28;0.93;;;;;;;13.90;45.74;92506.38;5005369;28;20053;-85
2023/01/18 10:03:33;;;;;;;3.30;1.25;;;;;;;13.98;45.09;92490.03;5005163;28;20018;-85
2023/01/18 10:06:07;;;;;;;6.18;1.02;;;;;;;14.04;44.87;92488.56;5005115;28;20050;-85
2023/01/18 10:08:38;;;;;;;8.93;1.50;;;;;;;13.97;45.16;92459.00;5004787;28;20064;-86
2023/01/18 10:11:11;;;;;;;4.05;0.73;;;;;;;13.89;45.54;92496.81;5005141;28;20141;-86
2023/01/18 10:13:57;;;;;;;8.60;1.27;;;;;;;13.82;45.77;92454.66;5005073;28;20022;-86
2023/01/18 10:16:24;;;;;;;3.67;0.75;;;;;;;13.72;45.18;92515.00;5005068;28;20069;-87
2023/01/18 10:18:52;;;;;;;4.75;1.35;;;;;;;13.76;45.25;92446.19;5004631;28;20026;-89
2023/01/18 10:21:41;;;;;;;4.63;1.10;;;;;;;13.75;45.53;92497.41;5004809;28;20309;-87
2023/01/18 10:24:40;;;;;;;7.75;1.30;;;;;;;13.79;45.30;92472.22;5003655;28;20026;-87
2023/01/18 10:27:30;;;;;;;7.60;1.60;;;;;;;13.79;45.56;92551.78;5005374;28;20097;-87
2023/01/18 10:30:29;;;;;;;8.05;0.98;;;;;;;13.79;44.73;92488.28;5005105;28;20065;-90
2023/01/18 10:32:58;;;;;;;7.05;1.70;;;;;;;13.81;44.91;92494.03;5003844;28;20026;-89
2023/01/18 10:35:29;;;;;;;6.70;1.50;;;;;;;13.89;44.95;92543.09;5005082;28;20022;-88
2023/01/18 10:38:00;;;;;;;9.63;1.67;;;;;;;13.84;44.86;92517.44;5004790;28;20053;-86
2023/01/18 10:40:26;;;;;;;15.77;1.60;;;;;;;13.88;44.76;92465.78;5003506;28;20240;-90
2023/01/18 10:42:55;;;;;;;7.80;1.48;;;;;;;13.90;44.44;92525.13;5003391;28;20029;-87
2023/01/18 10:45:27;;;;;;;8.13;1.48;;;;;;;13.97;44.36;92543.97;5004353;28;20030;-86
2023/01/18 10:47:54;;;;;;;6.20;1.52;;;;;;;13.95;44.63;92554.28;5003821;28;20357;-88
2023/01/18 10:50:33;;;;;;;2.72;1.00;;;;;;;14.01;44.67;92542.84;5004622;28;20046;-86
2023/01/18 10:53:22;;;;;;;10.45;1.52;;;;;;;13.93;44.60;92556.53;5004805;28;20022;-90
2023/01/18 10:56:02;;;;;;;7.05;1.55;;;;;;;13.89;45.01;92491.44;5004384;28;20073;-87
2023/01/18 10:58:44;;;;;;;4.18;1.20;;;;;;;14.01;44.49;92568.88;5004409;28;20022;-86
2023/01/18 11:01:16;;;;;;;6.60;1.40;;;;;;;13.99;44.03;92549.72;5004142;28;20027;-86
2023/01/18 11:03:51;;;;;;;12.52;1.23;;;;;;;14.01;44.12;92513.38;5003047;28;20269;-88
2023/01/18 11:06:19;;;;;;;7.30;1.33;;;;;;;13.97;44.29;92558.13;5004039;28;20228;-88
2023/01/18 11:08:45;;;;;;;15.10;1.38;;;;;;;14.02;44.51;92543.63;5004046;28;20085;-87
2023/01/18 11:14:30;;;;;;;4.47;1.17;;;;;;;13.96;44.80;92529.81;5004076;28;20246;-87
2023/01/18 11:17:10;;;;;;;15.68;1.45;;;;;;;13.96;44.45;92515.63;5003246;28;20026;-88
2023/01/18 11:19:36;;;;;;;6.68;1.77;;;;;;;13.96;44.66;92486.16;5002988;28;20026;-89
2023/01/18 11:22:03;;;;;;;13.98;2.58;;;;;;;13.96;44.32;92500.34;5004939;28;20029;-88
2023/01/18 11:24:30;;;;;;;8.82;1.58;;;;;;;13.98;44.44;92490.03;5003967;28;20228;-87
2023/01/18 11:27:12;;;;;;;6.70;1.00;;;;;;;13.99;44.51;92515.66;5002980;28;20343;-88
2023/01/18 11:29:43;;;;;;;4.57;1.17;;;;;;;13.99;44.31;92490.78;5003903;28;20036;-88
2023/01/18 11:32:29;;;;;;;5.55;1.65;;;;;;;14.07;44.19;92554.03;5003604;28;20030;-89
2023/01/18 11:34:58;;;;;;;8.00;1.13;;;;;;;14.02;44.32;92524.88;5004216;28;20018;-91
2023/01/18 11:37:35;;;;;;;13.70;1.67;;;;;;;14.07;43.87;92511.16;5003947;28;20117;-89
2023/01/18 11:40:19;;;;;;;3.55;0.90;;;;;;;14.13;42.77;92509.69;5003931;28;20045;-88
2023/01/18 11:42:45;;;;;;;6.68;1.30;;;;;;;14.17;43.85;92518.53;5003530;28;20027;-87
2023/01/18 11:45:23;;;;;;;6.63;1.08;;;;;;;14.13;43.45;92501.66;5003633;28;20026;-87
2023/01/18 11:47:54;;;;;;;6.45;1.05;;;;;;;14.16;43.64;92516.22;5003706;28;20031;-88
2023/01/18 11:50:27;;;;;;;3.65;1.10;;;;;;;14.16;43.66;92524.25;5002509;28;20030;-87
2023/01/18 11:53:30;;;;;;;9.57;0.85;;;;;;;14.13;43.80;92523.09;5003923;28;20065;-89
2023/01/18 11:56:40;;;;;;;6.72;1.00;;;;;;;14.11;43.47;92529.97;5003894;28;20029;-89
2023/01/18 11:59:17;;;;;;;6.93;1.00;;;;;;;14.10;43.98;92520.38;4983259;28;20030;-89
2023/01/18 12:02:20;;;;;;;11.50;2.40;;;;;;;14.17;43.61;92502.44;5004068;28;20197;-89
2023/01/18 12:05:11;;;;;;;8.65;1.70;;;;;;;14.28;42.95;92501.78;5003866;28;20046;-90
2023/01/18 12:08:01;;;;;;;16.75;1.80;;;;;;;14.35;42.71;92496.47;5004412;28;20026;-89
2023/01/18 12:10:36;;;;;;;9.18;1.48;;;;;;;14.37;42.67;92494.19;5003295;28;20030;-90
2023/01/18 12:13:29;;;;;;;9.30;1.60;;;;;;;14.36;42.57;92504.16;5003700;28;20030;-88
2023/01/18 12:15:56;;;;;;;11.32;1.40;;;;;;;14.37;42.46;92511.06;5003803;28;20027;-89
2023/01/18 12:18:27;;;;;;;9.75;1.20;;;;;;;14.31;42.70;92487.63;5002626;28;20097;-89